createdAt,value
2023-05-04T00:00:14.972Z,49.82
2023-05-04T00:01:14.955Z,49.91
2023-05-04T00:02:15.040Z,49.87
2023-05-04T00:03:15.035Z,49.77
2023-05-04T00:04:15.058Z,49.82
2023-05-04T00:05:14.985Z,49.46
2023-05-04T00:06:14.992Z,49.76
2023-05-04T00:07:15.011Z,50.03
2023-05-04T00:08:15.015Z,50.05
2023-05-04T00:09:15.021Z,50.16
2023-05-04T00:10:15.036Z,50.12
2023-05-04T00:11:15.060Z,50.27
2023-05-04T00:12:15.090Z,49.99
2023-05-04T00:13:15.200Z,50.09
2023-05-04T00:14:15.134Z,50.05
2023-05-04T00:15:15.160Z,49.67
2023-05-04T00:16:15.255Z,49.54
2023-05-04T00:17:15.264Z,49.46
2023-05-04T00:18:15.253Z,49.24
2023-05-04T00:19:15.281Z,49.32
2023-05-04T00:20:15.303Z,49.53
2023-05-04T00:21:15.355Z,49.67
2023-05-04T00:22:15.352Z,49.82
2023-05-04T00:23:15.383Z,49.84
2023-05-04T00:24:15.424Z,50.00
2023-05-04T00:25:15.465Z,50.05
2023-05-04T00:26:15.509Z,50.26
2023-05-04T00:27:15.507Z,50.40
2023-05-04T00:28:15.553Z,50.19
2023-05-04T00:29:15.595Z,50.15
2023-05-04T00:30:15.635Z,50.33
2023-05-04T00:31:15.719Z,50.49
2023-05-04T00:32:15.721Z,50.58
2023-05-04T00:33:15.759Z,50.77
2023-05-04T00:34:15.817Z,50.85
2023-05-04T00:35:15.904Z,50.85
2023-05-04T00:36:15.931Z,51.04
2023-05-04T00:37:16.005Z,50.94
2023-05-04T00:38:16.056Z,51.18
2023-05-04T00:39:16.118Z,51.33
2023-05-04T00:40:16.168Z,51.22
2023-05-04T00:41:16.206Z,51.30
2023-05-04T00:42:16.301Z,51.22
2023-05-04T00:43:16.307Z,51.11
2023-05-04T00:44:16.352Z,51.07
2023-05-04T00:45:16.458Z,50.99
2023-05-04T00:46:16.483Z,50.90
2023-05-04T00:47:16.520Z,50.86
2023-05-04T00:48:16.517Z,50.88
2023-05-04T00:49:16.555Z,50.92
2023-05-04T00:50:16.598Z,50.93
2023-05-04T00:51:16.664Z,51.16
2023-05-04T00:52:16.693Z,50.97
2023-05-04T00:53:16.730Z,51.04
2023-05-04T00:54:16.765Z,50.96
2023-05-04T00:55:16.832Z,51.12
2023-05-04T00:56:16.897Z,51.08
2023-05-04T00:57:16.931Z,51.36
2023-05-04T00:58:16.981Z,51.61
2023-05-04T00:59:17.024Z,51.62
2023-05-04T01:00:17.071Z,51.48
2023-05-04T01:01:17.157Z,51.34
2023-05-04T01:02:17.144Z,51.53
2023-05-04T01:03:17.263Z,51.44
2023-05-04T01:04:17.202Z,51.33
2023-05-04T01:05:17.245Z,51.38
2023-05-04T01:06:17.294Z,51.64
2023-05-04T01:07:17.349Z,51.56
2023-05-04T01:08:17.395Z,51.45
2023-05-04T01:09:17.458Z,51.55
2023-05-04T01:10:17.540Z,51.54
2023-05-04T01:11:17.570Z,51.54
2023-05-04T01:12:17.619Z,51.53
2023-05-04T01:13:17.713Z,51.58
2023-05-04T01:14:17.713Z,51.62
2023-05-04T01:15:17.791Z,51.54
2023-05-04T01:16:17.885Z,51.50
2023-05-04T01:17:17.938Z,51.39
2023-05-04T01:18:17.966Z,51.54
2023-05-04T01:19:18.021Z,51.73
2023-05-04T01:20:18.068Z,51.93
2023-05-04T01:21:18.107Z,52.05
2023-05-04T01:22:18.177Z,52.03
2023-05-04T01:23:18.212Z,52.35
2023-05-04T01:24:18.274Z,52.55
2023-05-04T01:25:18.298Z,52.48
2023-05-04T01:26:18.341Z,52.61
2023-05-04T01:27:18.367Z,52.65
2023-05-04T01:28:18.396Z,52.49
2023-05-04T01:29:18.421Z,52.27
2023-05-04T01:30:18.446Z,52.10
2023-05-04T01:31:18.530Z,52.00
2023-05-04T01:32:18.490Z,52.01
2023-05-04T01:33:18.505Z,52.10
2023-05-04T01:34:18.524Z,51.96
2023-05-04T01:35:18.502Z,51.76
2023-05-04T01:36:18.516Z,51.68
2023-05-04T01:37:18.523Z,51.72
2023-05-04T01:38:18.513Z,51.72
2023-05-04T01:39:18.534Z,51.87
2023-05-04T01:40:18.518Z,51.95
2023-05-04T01:41:18.550Z,51.84
2023-05-04T01:42:18.569Z,51.93
2023-05-04T01:43:18.542Z,51.79
2023-05-04T01:44:18.558Z,51.84
2023-05-04T01:45:18.543Z,51.98
2023-05-04T01:46:18.572Z,52.28
2023-05-04T01:47:18.549Z,52.38
2023-05-04T01:48:18.581Z,52.58
2023-05-04T01:49:18.566Z,52.76
2023-05-04T01:50:18.568Z,52.89
2023-05-04T01:51:18.606Z,52.94
2023-05-04T01:52:18.619Z,52.90
2023-05-04T01:53:18.601Z,52.71
2023-05-04T01:54:18.609Z,52.51
2023-05-04T01:55:18.621Z,52.61
2023-05-04T01:56:18.633Z,52.49
2023-05-04T01:57:18.732Z,52.57
2023-05-04T01:58:18.709Z,52.52
2023-05-04T01:59:18.667Z,52.46
2023-05-04T02:00:18.641Z,52.55
2023-05-04T02:01:18.736Z,52.72
2023-05-04T02:02:18.686Z,52.77
2023-05-04T02:03:18.765Z,52.69
2023-05-04T02:04:18.680Z,52.67
2023-05-04T02:05:18.684Z,52.81
2023-05-04T02:06:18.695Z,52.76
2023-05-04T02:07:18.698Z,52.65
2023-05-04T02:08:18.717Z,52.43
2023-05-04T02:09:18.735Z,52.46
2023-05-04T02:10:18.732Z,52.66
2023-05-04T02:11:18.769Z,52.62
2023-05-04T02:12:18.784Z,52.74
2023-05-04T02:13:18.798Z,52.86
2023-05-04T02:14:18.801Z,52.96
2023-05-04T02:15:18.847Z,52.97
2023-05-04T02:16:18.897Z,53.07
2023-05-04T02:17:18.893Z,53.10
2023-05-04T02:18:18.921Z,53.28
2023-05-04T02:19:18.950Z,53.28
2023-05-04T02:20:18.991Z,53.40
2023-05-04T02:21:19.020Z,53.32
2023-05-04T02:22:19.043Z,53.17
2023-05-04T02:23:19.066Z,53.18
2023-05-04T02:24:19.110Z,53.22
2023-05-04T02:25:19.152Z,53.28
2023-05-04T02:26:19.169Z,53.36
2023-05-04T02:27:19.208Z,53.06
2023-05-04T02:28:19.220Z,52.80
2023-05-04T02:29:19.264Z,52.75
2023-05-04T02:30:19.307Z,52.67
2023-05-04T02:31:19.344Z,52.60
2023-05-04T02:32:19.383Z,52.87
2023-05-04T02:33:19.407Z,52.98
2023-05-04T02:34:19.414Z,52.88
2023-05-04T02:35:19.433Z,52.92
2023-05-04T02:36:19.468Z,52.98
2023-05-04T02:37:19.484Z,53.02
2023-05-04T02:38:19.497Z,52.92
2023-05-04T02:39:19.534Z,52.76
2023-05-04T02:40:19.546Z,52.73
2023-05-04T02:41:19.605Z,52.91
2023-05-04T02:42:19.650Z,53.09
2023-05-04T02:43:19.663Z,53.12
2023-05-04T02:44:19.724Z,53.23
2023-05-04T02:45:19.862Z,53.12
2023-05-04T02:46:19.908Z,53.30
2023-05-04T02:47:19.848Z,53.18
2023-05-04T02:48:19.870Z,53.02
2023-05-04T02:49:19.903Z,53.14
2023-05-04T02:50:19.998Z,52.99
2023-05-04T02:51:19.977Z,52.98
2023-05-04T02:52:20.030Z,53.12
2023-05-04T02:53:20.076Z,53.14
2023-05-04T02:54:20.124Z,52.90
2023-05-04T02:55:20.135Z,53.12
2023-05-04T02:56:20.189Z,53.24
2023-05-04T02:57:20.241Z,53.39
2023-05-04T02:58:20.287Z,53.35
2023-05-04T02:59:20.346Z,53.22
2023-05-04T03:00:20.386Z,53.32
2023-05-04T03:01:20.489Z,53.10
2023-05-04T03:02:20.531Z,53.20
2023-05-04T03:03:20.520Z,53.27
2023-05-04T03:04:20.568Z,53.21
2023-05-04T03:05:20.610Z,53.11
2023-05-04T03:06:20.644Z,53.21
2023-05-04T03:07:20.801Z,53.28
2023-05-04T03:08:20.832Z,53.35
2023-05-04T03:09:20.967Z,53.47
2023-05-04T03:10:20.877Z,53.71
2023-05-04T03:11:20.933Z,53.88
2023-05-04T03:12:21.008Z,54.00
2023-05-04T03:13:21.077Z,53.81
2023-05-04T03:14:21.117Z,53.54
2023-05-04T03:15:21.175Z,53.55
2023-05-04T03:16:21.297Z,53.45
2023-05-04T03:17:21.322Z,53.40
2023-05-04T03:18:21.324Z,53.16
2023-05-04T03:19:21.346Z,53.24
2023-05-04T03:20:21.356Z,53.36
2023-05-04T03:21:21.426Z,53.44
2023-05-04T03:22:21.440Z,53.40
2023-05-04T03:23:21.431Z,53.51
2023-05-04T03:24:21.443Z,53.53
2023-05-04T03:25:21.500Z,53.66
2023-05-04T03:26:21.575Z,53.81
2023-05-04T03:27:21.586Z,53.89
2023-05-04T03:28:21.638Z,53.94
2023-05-04T03:29:21.673Z,53.87
2023-05-04T03:30:21.740Z,53.96
2023-05-04T03:31:21.808Z,53.68
2023-05-04T03:32:21.804Z,53.67
2023-05-04T03:33:21.899Z,53.71
2023-05-04T03:34:21.934Z,53.76
2023-05-04T03:35:24.977Z,54.12
2023-05-04T03:36:21.888Z,54.12
2023-05-04T03:37:21.880Z,54.10
2023-05-04T03:38:21.867Z,54.16
2023-05-04T03:39:21.896Z,54.25
2023-05-04T03:40:21.881Z,54.07
2023-05-04T03:41:21.844Z,54.19
2023-05-04T03:42:21.843Z,54.38
2023-05-04T03:43:21.840Z,54.37
2023-05-04T03:44:21.822Z,54.40
2023-05-04T03:45:21.834Z,54.39
2023-05-04T03:46:21.901Z,54.42
2023-05-04T03:47:21.830Z,54.36
2023-05-04T03:48:21.841Z,54.40
2023-05-04T03:49:21.809Z,54.46
2023-05-04T03:50:21.792Z,54.43
2023-05-04T03:51:21.788Z,54.43
2023-05-04T03:52:21.789Z,54.11
2023-05-04T03:53:21.761Z,54.24
2023-05-04T03:54:21.786Z,54.30
2023-05-04T03:55:21.767Z,54.20
2023-05-04T03:56:21.736Z,54.24
2023-05-04T03:57:21.754Z,54.06
2023-05-04T03:58:21.756Z,53.91
2023-05-04T03:59:21.723Z,53.70
2023-05-04T04:00:21.730Z,53.82
2023-05-04T04:01:21.715Z,53.97
2023-05-04T04:02:21.778Z,54.10
2023-05-04T04:03:22.099Z,54.14
2023-05-04T04:04:21.744Z,54.35
2023-05-04T04:05:21.704Z,54.50
2023-05-04T04:06:21.697Z,54.48
2023-05-04T04:07:21.658Z,54.45
2023-05-04T04:08:21.668Z,54.41
2023-05-04T04:09:21.640Z,54.32
2023-05-04T04:10:21.671Z,54.11
2023-05-04T04:11:21.649Z,54.24
2023-05-04T04:12:21.637Z,54.14
2023-05-04T04:13:21.772Z,54.17
2023-05-04T04:14:21.612Z,53.98
2023-05-04T04:15:21.631Z,53.99
2023-05-04T04:16:21.732Z,54.00
2023-05-04T04:17:21.671Z,54.10
2023-05-04T04:18:21.590Z,54.23
2023-05-04T04:19:21.571Z,54.35
2023-05-04T04:20:21.565Z,54.57
2023-05-04T04:21:21.608Z,54.39
2023-05-04T04:22:21.579Z,54.36
2023-05-04T04:23:21.578Z,54.26
2023-05-04T04:24:21.545Z,54.29
2023-05-04T04:25:21.531Z,54.31
2023-05-04T04:26:21.570Z,54.22
2023-05-04T04:27:21.655Z,54.11
2023-05-04T04:28:21.634Z,54.15
2023-05-04T04:29:21.505Z,54.04
2023-05-04T04:30:21.495Z,54.19
2023-05-04T04:31:21.563Z,54.47
2023-05-04T04:32:21.472Z,54.57
2023-05-04T04:33:21.483Z,54.82
2023-05-04T04:34:21.464Z,54.76
2023-05-04T04:35:21.469Z,54.71
2023-05-04T04:36:21.462Z,54.47
2023-05-04T04:37:21.462Z,54.47
2023-05-04T04:38:21.462Z,54.60
2023-05-04T04:39:21.467Z,54.38
2023-05-04T04:40:21.416Z,54.40
2023-05-04T04:41:21.451Z,54.45
2023-05-04T04:42:21.486Z,54.52
2023-05-04T04:43:21.406Z,54.51
2023-05-04T04:44:21.434Z,54.55
2023-05-04T04:45:21.420Z,54.63
2023-05-04T04:46:21.447Z,54.64
2023-05-04T04:47:21.380Z,54.66
2023-05-04T04:48:21.404Z,54.61
2023-05-04T04:49:21.374Z,54.45
2023-05-04T04:50:21.364Z,54.46
2023-05-04T04:51:21.366Z,54.58
2023-05-04T04:52:21.392Z,54.52
2023-05-04T04:53:21.348Z,54.52
2023-05-04T04:54:21.347Z,54.48
2023-05-04T04:55:21.335Z,54.35
2023-05-04T04:56:21.329Z,54.55
2023-05-04T04:57:21.319Z,54.58
2023-05-04T04:58:21.287Z,54.60
2023-05-04T04:59:21.290Z,54.60
2023-05-04T05:00:21.286Z,54.72
2023-05-04T05:01:21.340Z,54.53
2023-05-04T05:02:21.267Z,54.50
2023-05-04T05:03:21.263Z,54.53
2023-05-04T05:04:21.270Z,54.72
2023-05-04T05:05:21.262Z,54.53
2023-05-04T05:06:21.256Z,54.57
2023-05-04T05:07:21.262Z,54.45
2023-05-04T05:08:21.273Z,54.50
2023-05-04T05:09:21.245Z,54.39
2023-05-04T05:10:21.262Z,54.42
2023-05-04T05:11:21.320Z,54.61
2023-05-04T05:12:22.473Z,54.60
2023-05-04T05:13:21.571Z,54.74
2023-05-04T05:14:21.497Z,54.75
2023-05-04T05:15:21.563Z,54.76
2023-05-04T05:16:21.647Z,54.96
2023-05-04T05:17:21.701Z,54.98
2023-05-04T05:18:21.742Z,55.07
2023-05-04T05:19:21.782Z,55.50
2023-05-04T05:20:21.836Z,55.13
2023-05-04T05:21:21.837Z,54.71
2023-05-04T05:22:21.808Z,54.10
2023-05-04T05:23:21.796Z,53.86
2023-05-04T05:24:21.838Z,53.83
2023-05-04T05:25:21.826Z,53.78
2023-05-04T05:26:21.806Z,53.53
2023-05-04T05:27:21.984Z,53.71
2023-05-04T05:28:21.778Z,53.97
2023-05-04T05:29:21.794Z,54.01
2023-05-04T05:30:21.760Z,54.04
2023-05-04T05:31:21.775Z,54.15
2023-05-04T05:32:21.741Z,54.13
2023-05-04T05:33:21.765Z,53.99
2023-05-04T05:34:21.730Z,53.91
2023-05-04T05:35:21.733Z,54.24
2023-05-04T05:36:21.705Z,54.09
2023-05-04T05:37:22.013Z,53.94
2023-05-04T05:38:21.829Z,54.04
2023-05-04T05:39:21.932Z,54.16
2023-05-04T05:40:21.932Z,54.46
2023-05-04T05:41:21.969Z,54.65
2023-05-04T05:42:22.538Z,54.62
2023-05-04T05:43:22.099Z,54.97
2023-05-04T05:44:22.165Z,54.87
2023-05-04T05:45:22.218Z,54.98
2023-05-04T05:46:22.362Z,55.01
2023-05-04T05:47:22.415Z,55.30
2023-05-04T05:48:22.394Z,54.74
2023-05-04T05:49:22.454Z,54.95
2023-05-04T05:50:22.494Z,55.11
2023-05-04T05:51:22.514Z,55.06
2023-05-04T05:52:22.577Z,54.90
2023-05-04T05:53:22.599Z,54.72
2023-05-04T05:54:22.633Z,54.76
2023-05-04T05:55:22.707Z,54.97
2023-05-04T05:56:22.714Z,55.08
2023-05-04T05:57:22.726Z,54.76
2023-05-04T05:58:22.782Z,54.61
2023-05-04T05:59:22.818Z,54.79
2023-05-04T06:00:22.841Z,54.88
2023-05-04T06:01:22.876Z,54.90
2023-05-04T06:02:23.033Z,54.78
2023-05-04T06:03:23.128Z,54.83
2023-05-04T06:04:23.004Z,54.97
2023-05-04T06:05:22.942Z,55.16
2023-05-04T06:06:22.980Z,55.06
2023-05-04T06:07:22.975Z,54.78
2023-05-04T06:08:22.958Z,54.40
2023-05-04T06:09:22.954Z,54.26
2023-05-04T06:10:22.981Z,53.94
2023-05-04T06:11:22.961Z,54.15
2023-05-04T06:12:22.960Z,53.83
2023-05-04T06:13:22.959Z,53.77
2023-05-04T06:14:23.045Z,53.73
2023-05-04T06:15:22.967Z,53.89
2023-05-04T06:16:23.053Z,53.82
2023-05-04T06:17:23.193Z,54.07
2023-05-04T06:18:23.072Z,54.32
2023-05-04T06:19:23.235Z,54.01
2023-05-04T06:20:23.216Z,53.60
2023-05-04T06:21:23.243Z,53.77
2023-05-04T06:22:23.354Z,53.93
2023-05-04T06:23:23.371Z,53.68
2023-05-04T06:24:23.415Z,53.68
2023-05-04T06:25:23.490Z,53.61
2023-05-04T06:26:23.527Z,53.47
2023-05-04T06:27:24.264Z,53.37
2023-05-04T06:28:24.024Z,53.41
2023-05-04T06:29:23.673Z,53.34
2023-05-04T06:30:23.709Z,53.48
2023-05-04T06:31:23.843Z,53.33
2023-05-04T06:32:24.037Z,53.18
2023-05-04T06:33:23.984Z,53.11
2023-05-04T06:34:23.980Z,53.41
2023-05-04T06:35:24.014Z,53.30
2023-05-04T06:36:24.084Z,53.27
2023-05-04T06:37:24.528Z,53.59
2023-05-04T06:38:24.183Z,53.34
2023-05-04T06:39:24.257Z,53.42
2023-05-04T06:40:24.246Z,53.31
2023-05-04T06:41:24.234Z,53.47
2023-05-04T06:42:24.235Z,53.77
2023-05-04T06:43:24.201Z,53.93
2023-05-04T06:44:24.226Z,53.69
2023-05-04T06:45:24.236Z,53.71
2023-05-04T06:46:24.224Z,53.87
2023-05-04T06:47:24.198Z,53.88
2023-05-04T06:48:24.179Z,53.73
2023-05-04T06:49:24.184Z,53.75
2023-05-04T06:50:24.193Z,53.14
2023-05-04T06:51:24.178Z,52.95
2023-05-04T06:52:24.174Z,52.65
2023-05-04T06:53:24.154Z,52.50
2023-05-04T06:54:24.153Z,52.63
2023-05-04T06:55:24.144Z,52.96
2023-05-04T06:56:24.132Z,53.00
2023-05-04T06:57:24.143Z,53.12
2023-05-04T06:58:24.134Z,53.10
2023-05-04T06:59:24.167Z,52.86
2023-05-04T07:00:24.127Z,52.91
2023-05-04T07:01:24.274Z,52.85
2023-05-04T07:02:24.197Z,53.07
2023-05-04T07:03:24.145Z,53.20
2023-05-04T07:04:24.135Z,53.38
2023-05-04T07:05:24.227Z,52.99
2023-05-04T07:06:24.280Z,52.78
2023-05-04T07:07:24.347Z,52.51
2023-05-04T07:08:24.410Z,52.60
2023-05-04T07:09:24.418Z,51.85
2023-05-04T07:10:24.495Z,50.92
2023-05-04T07:11:24.529Z,50.95
2023-05-04T07:12:24.631Z,51.28
2023-05-04T07:13:25.020Z,51.56
2023-05-04T07:14:24.690Z,51.77
2023-05-04T07:15:24.738Z,51.77
2023-05-04T07:16:24.801Z,51.83
2023-05-04T07:17:25.058Z,52.16
2023-05-04T07:18:24.873Z,52.51
2023-05-04T07:19:24.892Z,52.07
2023-05-04T07:20:26.042Z,51.94
2023-05-04T07:21:28.247Z,52.20
2023-05-04T07:22:24.956Z,51.90
2023-05-04T07:23:24.954Z,51.58
2023-05-04T07:24:24.974Z,51.22
2023-05-04T07:25:24.954Z,50.98
2023-05-04T07:26:24.936Z,50.90
2023-05-04T07:27:25.155Z,50.89
2023-05-04T07:28:24.931Z,50.26
2023-05-04T07:29:24.906Z,50.36
2023-05-04T07:30:24.933Z,50.14
2023-05-04T07:31:24.982Z,50.66
2023-05-04T07:32:25.169Z,50.90
2023-05-04T07:33:24.973Z,50.42
2023-05-04T07:34:34.021Z,50.23
2023-05-04T07:35:25.865Z,50.43
2023-05-04T07:36:24.883Z,50.51
2023-05-04T07:37:25.021Z,50.07
2023-05-04T07:38:25.139Z,49.61
2023-05-04T07:39:24.817Z,49.90
2023-05-04T07:40:24.838Z,49.99
2023-05-04T07:41:24.800Z,50.18
2023-05-04T07:42:25.016Z,49.90
2023-05-04T07:43:24.815Z,49.91
2023-05-04T07:44:24.865Z,49.92
2023-05-04T07:45:24.776Z,50.09
2023-05-04T07:46:24.794Z,50.56
2023-05-04T07:47:25.162Z,50.18
2023-05-04T07:48:26.669Z,49.84
2023-05-04T07:49:24.847Z,49.76
2023-05-04T07:50:24.798Z,48.96
2023-05-04T07:51:24.923Z,48.64
2023-05-04T07:52:24.752Z,48.59
2023-05-04T07:53:25.033Z,48.59
2023-05-04T07:54:24.749Z,48.35
2023-05-04T07:55:24.745Z,47.82
2023-05-04T07:56:24.713Z,47.74
2023-05-04T07:57:24.739Z,47.66
2023-05-04T07:58:25.018Z,47.37
2023-05-04T07:59:24.717Z,47.33
2023-05-04T08:00:24.731Z,47.72
2023-05-04T08:01:24.767Z,48.10
2023-05-04T08:02:24.892Z,48.02
2023-05-04T08:03:24.847Z,47.69
2023-05-04T08:04:24.787Z,47.66
2023-05-04T08:05:24.797Z,47.59
2023-05-04T08:06:24.799Z,47.48
2023-05-04T08:07:24.901Z,47.73
2023-05-04T08:08:25.038Z,47.40
2023-05-04T08:09:24.928Z,47.34
2023-05-04T08:10:25.022Z,48.48
2023-05-04T08:11:24.997Z,47.87
2023-05-04T08:12:25.101Z,47.51
2023-05-04T08:13:25.097Z,46.95
2023-05-04T08:14:25.110Z,47.11
2023-05-04T08:15:25.114Z,47.18
2023-05-04T08:16:25.095Z,47.22
2023-05-04T08:17:25.207Z,47.08
2023-05-04T08:18:25.170Z,47.08
2023-05-04T08:19:25.248Z,47.00
2023-05-04T08:20:25.308Z,47.70
2023-05-04T08:21:25.339Z,48.15
2023-05-04T08:22:25.379Z,46.97
2023-05-04T08:23:25.532Z,46.81
2023-05-04T08:24:25.526Z,46.87
2023-05-04T08:25:25.611Z,47.11
2023-05-04T08:26:25.674Z,47.52
2023-05-04T08:27:25.712Z,47.66
2023-05-04T08:28:25.833Z,47.54
2023-05-04T08:29:25.790Z,47.56
2023-05-04T08:30:25.813Z,48.51
2023-05-04T08:31:25.874Z,47.54
2023-05-04T08:32:25.920Z,47.23
2023-05-04T08:33:25.941Z,47.13
2023-05-04T08:34:25.975Z,47.06
2023-05-04T08:35:25.994Z,46.78
2023-05-04T08:36:26.046Z,47.54
2023-05-04T08:37:26.189Z,47.15
2023-05-04T08:38:26.098Z,47.26
2023-05-04T08:39:26.173Z,47.35
2023-05-04T08:40:26.175Z,47.50
2023-05-04T08:41:26.172Z,47.21
2023-05-04T08:42:26.209Z,47.20
2023-05-04T08:43:26.588Z,47.90
2023-05-04T08:44:26.296Z,48.24
2023-05-04T08:45:26.346Z,47.67
2023-05-04T08:46:26.324Z,47.27
2023-05-04T08:47:26.371Z,46.47
2023-05-04T08:48:26.378Z,46.18
2023-05-04T08:49:26.635Z,45.49
2023-05-04T08:50:26.494Z,44.95
2023-05-04T08:51:26.440Z,44.96
2023-05-04T08:52:26.503Z,44.66
2023-05-04T08:53:26.584Z,44.71
2023-05-04T08:54:26.492Z,44.84
2023-05-04T08:55:26.528Z,44.94
2023-05-04T08:56:26.529Z,44.99
2023-05-04T08:57:26.564Z,45.03
2023-05-04T08:58:26.553Z,44.92
2023-05-04T08:59:26.661Z,45.48
2023-05-04T09:00:26.622Z,44.42
2023-05-04T09:01:26.720Z,44.39
2023-05-04T09:02:26.677Z,44.04
2023-05-04T09:03:27.101Z,42.98
2023-05-04T09:04:28.633Z,42.95
2023-05-04T09:05:26.618Z,42.65
2023-05-04T09:06:26.599Z,42.34
2023-05-04T09:07:26.611Z,42.23
2023-05-04T09:08:27.067Z,42.03
2023-05-04T09:09:26.613Z,41.62
2023-05-04T09:10:29.413Z,41.45
2023-05-04T09:11:26.603Z,41.90
2023-05-04T09:12:26.583Z,42.23
2023-05-04T09:13:27.064Z,42.00
2023-05-04T09:14:26.540Z,42.67
2023-05-04T09:15:26.566Z,42.95
2023-05-04T09:16:26.738Z,42.79
2023-05-04T09:17:26.647Z,42.70
2023-05-04T09:18:26.656Z,42.70
2023-05-04T09:19:26.545Z,43.34
2023-05-04T09:20:26.504Z,42.77
2023-05-04T09:21:26.566Z,42.37
2023-05-04T09:22:28.244Z,42.89
2023-05-04T09:23:26.596Z,42.90
2023-05-04T09:24:26.515Z,42.28
2023-05-04T09:25:26.506Z,42.24
2023-05-04T09:26:26.528Z,42.28
2023-05-04T09:27:26.572Z,42.47
2023-05-04T09:28:28.834Z,41.58
2023-05-04T09:29:26.646Z,41.53
2023-05-04T09:30:26.801Z,42.35
2023-05-04T09:31:26.826Z,42.62
2023-05-04T09:32:26.813Z,42.48
2023-05-04T09:33:27.063Z,42.55
2023-05-04T09:34:26.819Z,42.59
2023-05-04T09:35:33.218Z,41.94
2023-05-04T09:36:27.842Z,41.68
2023-05-04T09:37:26.821Z,41.82
2023-05-04T09:38:26.846Z,42.21
2023-05-04T09:39:26.814Z,42.97
2023-05-04T09:40:26.817Z,43.00
2023-05-04T09:41:26.775Z,42.68
2023-05-04T09:42:26.948Z,42.35
2023-05-04T09:43:26.779Z,41.70
2023-05-04T09:44:29.382Z,41.38
2023-05-04T09:45:26.755Z,41.94
2023-05-04T09:46:26.785Z,41.85
2023-05-04T09:47:26.789Z,42.03
2023-05-04T09:48:26.838Z,43.07
2023-05-04T09:49:26.725Z,42.48
2023-05-04T09:50:26.770Z,41.40
2023-05-04T09:51:26.837Z,41.19
2023-05-04T09:52:26.717Z,41.25
2023-05-04T09:53:27.096Z,40.78
2023-05-04T09:54:26.688Z,41.06
2023-05-04T09:55:26.704Z,40.84
2023-05-04T09:56:26.694Z,40.76
2023-05-04T09:57:26.686Z,40.06
2023-05-04T09:58:27.245Z,39.99
2023-05-04T09:59:26.695Z,40.82
2023-05-04T10:00:26.659Z,40.42
2023-05-04T10:01:26.720Z,40.53
2023-05-04T10:02:26.688Z,41.26
2023-05-04T10:03:26.634Z,41.67
2023-05-04T10:04:26.670Z,42.74
2023-05-04T10:05:26.673Z,42.45
2023-05-04T10:06:26.616Z,42.09
2023-05-04T10:07:26.625Z,42.02
2023-05-04T10:08:26.637Z,42.03
2023-05-04T10:09:26.655Z,43.53
2023-05-04T10:10:26.589Z,44.04
2023-05-04T10:11:26.582Z,43.17
2023-05-04T10:12:26.600Z,43.90
2023-05-04T10:13:26.664Z,43.91
2023-05-04T10:14:26.558Z,43.82
2023-05-04T10:15:26.599Z,43.45
2023-05-04T10:16:26.598Z,42.48
2023-05-04T10:17:26.598Z,43.08
2023-05-04T10:18:26.531Z,43.55
2023-05-04T10:19:26.554Z,42.19
2023-05-04T10:20:26.530Z,41.21
2023-05-04T10:21:26.512Z,41.88
2023-05-04T10:22:26.519Z,40.99
2023-05-04T10:23:26.563Z,41.34
2023-05-04T10:24:26.574Z,41.82
2023-05-04T10:25:26.517Z,41.52
2023-05-04T10:26:26.590Z,42.07
2023-05-04T10:27:26.527Z,42.69
2023-05-04T10:28:26.472Z,41.86
2023-05-04T10:29:26.526Z,41.63
2023-05-04T10:30:26.468Z,41.21
2023-05-04T10:31:26.542Z,40.31
2023-05-04T10:32:26.469Z,40.12
2023-05-04T10:33:26.466Z,39.74
2023-05-04T10:34:26.568Z,40.19
2023-05-04T10:35:26.454Z,41.40
2023-05-04T10:36:26.470Z,42.62
2023-05-04T10:37:26.444Z,41.51
2023-05-04T10:38:26.408Z,41.22
2023-05-04T10:39:26.459Z,41.58
2023-05-04T10:40:26.450Z,40.94
2023-05-04T10:41:26.518Z,39.67
2023-05-04T10:42:26.523Z,39.54
2023-05-04T10:43:26.640Z,39.79
2023-05-04T10:44:27.089Z,40.99
2023-05-04T10:45:26.656Z,41.05
2023-05-04T10:46:26.678Z,39.47
2023-05-04T10:47:26.770Z,40.29
2023-05-04T10:48:26.760Z,40.91
2023-05-04T10:49:27.065Z,40.37
2023-05-04T10:50:26.876Z,38.84
2023-05-04T10:51:35.648Z,38.40
2023-05-04T10:52:27.874Z,39.78
2023-05-04T10:53:26.861Z,40.15
2023-05-04T10:54:27.071Z,41.07
2023-05-04T10:55:26.838Z,38.72
2023-05-04T10:56:26.851Z,38.94
2023-05-04T10:57:26.849Z,39.14
2023-05-04T10:58:26.804Z,39.51
2023-05-04T10:59:27.071Z,37.87
2023-05-04T11:00:26.811Z,38.38
2023-05-04T11:01:26.854Z,38.64
2023-05-04T11:02:26.971Z,38.12
2023-05-04T11:03:26.921Z,37.74
2023-05-04T11:04:27.095Z,37.42
2023-05-04T11:05:26.785Z,38.86
2023-05-04T11:06:26.809Z,38.74
2023-05-04T11:07:26.834Z,38.41
2023-05-04T11:08:26.881Z,39.53
2023-05-04T11:09:26.886Z,38.30
2023-05-04T11:10:26.902Z,37.12
2023-05-04T11:11:26.956Z,37.43
2023-05-04T11:12:26.944Z,39.33
2023-05-04T11:13:27.073Z,38.94
2023-05-04T11:14:27.200Z,38.81
2023-05-04T11:15:27.110Z,39.10
2023-05-04T11:16:27.223Z,38.54
2023-05-04T11:17:28.508Z,38.09
2023-05-04T11:18:27.076Z,37.67
2023-05-04T11:19:27.042Z,38.51
2023-05-04T11:20:27.169Z,38.71
2023-05-04T11:21:27.046Z,37.69
2023-05-04T11:22:27.071Z,38.45
2023-05-04T11:23:27.094Z,37.81
2023-05-04T11:24:27.068Z,38.01
2023-05-04T11:25:27.064Z,38.29
2023-05-04T11:26:27.083Z,38.42
2023-05-04T11:27:27.093Z,38.09
2023-05-04T11:28:27.103Z,37.66
2023-05-04T11:29:27.088Z,36.03
2023-05-04T11:30:27.140Z,35.79
2023-05-04T11:31:27.172Z,36.12
2023-05-04T11:32:27.222Z,36.84
2023-05-04T11:33:27.226Z,36.53
2023-05-04T11:34:27.195Z,36.20
2023-05-04T11:35:27.234Z,36.34
2023-05-04T11:36:27.272Z,34.79
2023-05-04T11:37:27.423Z,33.91
2023-05-04T11:38:27.381Z,32.08
2023-05-04T11:39:27.446Z,32.77
2023-05-04T11:40:27.517Z,32.01
2023-05-04T11:41:27.547Z,32.11
2023-05-04T11:42:27.582Z,32.87
2023-05-04T11:43:27.663Z,36.46
2023-05-04T11:44:27.721Z,35.72
2023-05-04T11:45:27.744Z,35.72
2023-05-04T11:46:27.797Z,34.47
2023-05-04T11:47:27.904Z,34.51
2023-05-04T11:48:27.920Z,33.89
2023-05-04T11:49:27.977Z,35.51
2023-05-04T11:50:28.009Z,35.45
2023-05-04T11:51:28.019Z,34.90
2023-05-04T11:52:28.074Z,34.39
2023-05-04T11:53:28.176Z,34.07
2023-05-04T11:54:28.191Z,34.51
2023-05-04T11:55:28.249Z,34.70
2023-05-04T11:56:28.296Z,34.09
2023-05-04T11:57:28.357Z,34.11
2023-05-04T11:58:28.424Z,34.47
2023-05-04T11:59:28.468Z,34.67
2023-05-04T12:00:28.508Z,34.06
2023-05-04T12:01:28.535Z,35.92
2023-05-04T12:02:28.618Z,34.72
2023-05-04T12:03:35.963Z,33.19
2023-05-04T12:04:29.586Z,33.83
2023-05-04T12:05:28.637Z,33.74
2023-05-04T12:06:28.566Z,33.62
2023-05-04T12:07:28.562Z,32.91
2023-05-04T12:08:28.532Z,33.01
2023-05-04T12:09:28.568Z,34.74
2023-05-04T12:10:28.546Z,33.49
2023-05-04T12:11:28.523Z,32.65
2023-05-04T12:12:28.530Z,31.85
2023-05-04T12:13:28.518Z,32.80
2023-05-04T12:14:28.510Z,33.62
2023-05-04T12:15:28.483Z,33.82
2023-05-04T12:16:28.529Z,33.83
2023-05-04T12:17:28.492Z,33.53
2023-05-04T12:18:28.482Z,32.64
2023-05-04T12:19:28.471Z,31.80
2023-05-04T12:20:28.473Z,32.15
2023-05-04T12:21:28.466Z,31.74
2023-05-04T12:22:28.450Z,31.55
2023-05-04T12:23:28.462Z,32.12
2023-05-04T12:24:28.456Z,32.13
2023-05-04T12:25:28.417Z,33.30
2023-05-04T12:26:28.490Z,31.03
2023-05-04T12:27:28.509Z,32.47
2023-05-04T12:28:28.578Z,31.86
2023-05-04T12:29:28.637Z,31.88
2023-05-04T12:30:28.686Z,30.85
2023-05-04T12:31:28.796Z,31.40
2023-05-04T12:32:28.855Z,32.13
2023-05-04T12:33:28.874Z,31.04
2023-05-04T12:34:28.960Z,30.56
2023-05-04T12:35:28.972Z,30.75
2023-05-04T12:36:28.987Z,30.70
2023-05-04T12:37:29.043Z,30.28
2023-05-04T12:38:29.079Z,29.84
2023-05-04T12:39:29.097Z,29.74
2023-05-04T12:40:29.197Z,29.71
2023-05-04T12:41:29.160Z,30.13
2023-05-04T12:42:29.205Z,29.72
2023-05-04T12:43:29.216Z,29.92
2023-05-04T12:44:29.258Z,31.58
2023-05-04T12:45:29.255Z,30.77
2023-05-04T12:46:29.397Z,30.54
2023-05-04T12:47:29.319Z,30.38
2023-05-04T12:48:29.281Z,30.91
2023-05-04T12:49:29.310Z,29.71
2023-05-04T12:50:29.291Z,30.16
2023-05-04T12:51:29.274Z,30.81
2023-05-04T12:52:29.330Z,30.41